sensor_id;sensor_type;location;lat;lon;timestamp;P1;durP1;ratioP1;P2;durP2;ratioP2
21114;SDS011;10715;48.546;9.896;2023-09-08T00:00:57;4.70;;;3.47;;
21114;SDS011;10715;48.546;9.896;2023-09-08T00:03:23;3.70;;;3.50;;
21114;SDS011;10715;48.546;9.896;2023-09-08T00:05:49;6.37;;;3.30;;
21114;SDS011;10715;48.546;9.896;2023-09-08T00:08:15;4.33;;;3.57;;
21114;SDS011;10715;48.546;9.896;2023-09-08T00:10:41;2.00;;;1.80;;
21114;SDS011;10715;48.546;9.896;2023-09-08T00:13:07;6.40;;;3.47;;
21114;SDS011;10715;48.546;9.896;2023-09-08T00:15:33;3.80;;;2.97;;
21114;SDS011;10715;48.546;9.896;2023-09-08T00:18:02;4.67;;;3.33;;
21114;SDS011;10715;48.546;9.896;2023-09-08T00:20:28;2.83;;;2.60;;
21114;SDS011;10715;48.546;9.896;2023-09-08T00:22:54;3.20;;;2.43;;
21114;SDS011;10715;48.546;9.896;2023-09-08T00:25:20;3.43;;;3.00;;
21114;SDS011;10715;48.546;9.896;2023-09-08T00:27:45;4.63;;;3.17;;
21114;SDS011;10715;48.546;9.896;2023-09-08T00:30:11;7.13;;;3.53;;
21114;SDS011;10715;48.546;9.896;2023-09-08T00:32:37;4.50;;;3.13;;
21114;SDS011;10715;48.546;9.896;2023-09-08T00:35:05;5.83;;;3.70;;
21114;SDS011;10715;48.546;9.896;2023-09-08T00:37:31;4.40;;;2.90;;
21114;SDS011;10715;48.546;9.896;2023-09-08T00:39:57;3.50;;;2.87;;
21114;SDS011;10715;48.546;9.896;2023-09-08T00:42:22;4.00;;;3.57;;
21114;SDS011;10715;48.546;9.896;2023-09-08T00:44:48;7.53;;;3.17;;
21114;SDS011;10715;48.546;9.896;2023-09-08T00:47:14;3.33;;;3.03;;
21114;SDS011;10715;48.546;9.896;2023-09-08T00:49:40;3.63;;;2.70;;
21114;SDS011;10715;48.546;9.896;2023-09-08T00:52:06;3.97;;;3.13;;
21114;SDS011;10715;48.546;9.896;2023-09-08T00:54:32;3.60;;;3.30;;
21114;SDS011;10715;48.546;9.896;2023-09-08T00:56:58;4.37;;;3.20;;
21114;SDS011;10715;48.546;9.896;2023-09-08T00:59:31;2.87;;;2.50;;
21114;SDS011;10715;48.546;9.896;2023-09-08T01:01:58;2.80;;;2.60;;
21114;SDS011;10715;48.546;9.896;2023-09-08T01:04:24;3.40;;;3.10;;
21114;SDS011;10715;48.546;9.896;2023-09-08T01:06:50;3.23;;;2.93;;
21114;SDS011;10715;48.546;9.896;2023-09-08T01:09:16;4.50;;;3.17;;
21114;SDS011;10715;48.546;9.896;2023-09-08T01:11:43;4.97;;;3.43;;
21114;SDS011;10715;48.546;9.896;2023-09-08T01:14:11;4.27;;;3.40;;
21114;SDS011;10715;48.546;9.896;2023-09-08T01:16:38;3.30;;;2.40;;
21114;SDS011;10715;48.546;9.896;2023-09-08T01:19:06;3.30;;;2.73;;
21114;SDS011;10715;48.546;9.896;2023-09-08T01:26:42;3.80;;;3.50;;
21114;SDS011;10715;48.546;9.896;2023-09-08T01:29:09;3.70;;;3.43;;
21114;SDS011;10715;48.546;9.896;2023-09-08T01:31:35;4.73;;;3.60;;
21114;SDS011;10715;48.546;9.896;2023-09-08T01:34:03;4.23;;;3.63;;
21114;SDS011;10715;48.546;9.896;2023-09-08T01:36:32;3.63;;;2.90;;
21114;SDS011;10715;48.546;9.896;2023-09-08T01:38:59;3.20;;;3.00;;
21114;SDS011;10715;48.546;9.896;2023-09-08T01:41:25;3.57;;;3.20;;
21114;SDS011;10715;48.546;9.896;2023-09-08T01:43:50;3.93;;;3.20;;
21114;SDS011;10715;48.546;9.896;2023-09-08T01:46:16;3.90;;;3.60;;
21114;SDS011;10715;48.546;9.896;2023-09-08T01:48:42;3.50;;;3.17;;
21114;SDS011;10715;48.546;9.896;2023-09-08T01:51:08;4.43;;;3.57;;
21114;SDS011;10715;48.546;9.896;2023-09-08T01:53:33;5.27;;;4.00;;
21114;SDS011;10715;48.546;9.896;2023-09-08T01:55:59;3.97;;;3.67;;
21114;SDS011;10715;48.546;9.896;2023-09-08T01:58:26;3.77;;;3.47;;
21114;SDS011;10715;48.546;9.896;2023-09-08T02:00:51;3.40;;;2.87;;
21114;SDS011;10715;48.546;9.896;2023-09-08T02:03:17;4.30;;;3.00;;
21114;SDS011;10715;48.546;9.896;2023-09-08T02:05:43;3.23;;;3.00;;
21114;SDS011;10715;48.546;9.896;2023-09-08T02:08:10;2.90;;;2.70;;
21114;SDS011;10715;48.546;9.896;2023-09-08T02:10:35;4.80;;;3.20;;
21114;SDS011;10715;48.546;9.896;2023-09-08T02:13:04;4.63;;;4.10;;
21114;SDS011;10715;48.546;9.896;2023-09-08T02:15:29;3.10;;;2.87;;
21114;SDS011;10715;48.546;9.896;2023-09-08T02:17:55;5.03;;;3.43;;
21114;SDS011;10715;48.546;9.896;2023-09-08T02:20:21;10.43;;;3.23;;
21114;SDS011;10715;48.546;9.896;2023-09-08T02:22:49;9.20;;;3.10;;
21114;SDS011;10715;48.546;9.896;2023-09-08T02:25:18;4.73;;;3.63;;
21114;SDS011;10715;48.546;9.896;2023-09-08T02:27:44;2.73;;;2.50;;
21114;SDS011;10715;48.546;9.896;2023-09-08T02:30:09;3.57;;;3.30;;
21114;SDS011;10715;48.546;9.896;2023-09-08T02:32:35;3.40;;;2.30;;
21114;SDS011;10715;48.546;9.896;2023-09-08T02:35:01;8.03;;;2.70;;
21114;SDS011;10715;48.546;9.896;2023-09-08T02:37:27;3.77;;;3.47;;
21114;SDS011;10715;48.546;9.896;2023-09-08T02:39:52;3.70;;;3.40;;
21114;SDS011;10715;48.546;9.896;2023-09-08T02:42:18;2.53;;;2.30;;
21114;SDS011;10715;48.546;9.896;2023-09-08T02:44:44;3.40;;;2.80;;
21114;SDS011;10715;48.546;9.896;2023-09-08T02:47:09;7.60;;;4.13;;
21114;SDS011;10715;48.546;9.896;2023-09-08T02:49:35;3.13;;;2.70;;
21114;SDS011;10715;48.546;9.896;2023-09-08T02:52:01;5.50;;;2.87;;
21114;SDS011;10715;48.546;9.896;2023-09-08T02:54:27;3.70;;;3.13;;
21114;SDS011;10715;48.546;9.896;2023-09-08T02:56:52;2.87;;;2.67;;
21114;SDS011;10715;48.546;9.896;2023-09-08T02:59:18;3.60;;;3.10;;
21114;SDS011;10715;48.546;9.896;2023-09-08T03:01:44;3.60;;;3.30;;
21114;SDS011;10715;48.546;9.896;2023-09-08T03:04:09;3.97;;;2.80;;
21114;SDS011;10715;48.546;9.896;2023-09-08T03:06:35;3.20;;;2.90;;
21114;SDS011;10715;48.546;9.896;2023-09-08T03:09:01;6.07;;;4.13;;
21114;SDS011;10715;48.546;9.896;2023-09-08T03:11:27;6.10;;;2.90;;
21114;SDS011;10715;48.546;9.896;2023-09-08T03:13:53;3.90;;;2.90;;
21114;SDS011;10715;48.546;9.896;2023-09-08T03:16:19;6.30;;;2.90;;
21114;SDS011;10715;48.546;9.896;2023-09-08T03:18:44;3.77;;;3.47;;
21114;SDS011;10715;48.546;9.896;2023-09-08T03:21:13;4.53;;;4.13;;
21114;SDS011;10715;48.546;9.896;2023-09-08T03:23:40;4.23;;;3.33;;
21114;SDS011;10715;48.546;9.896;2023-09-08T03:26:09;5.07;;;3.57;;
21114;SDS011;10715;48.546;9.896;2023-09-08T03:28:36;4.47;;;3.50;;
21114;SDS011;10715;48.546;9.896;2023-09-08T03:31:02;3.30;;;3.10;;
21114;SDS011;10715;48.546;9.896;2023-09-08T03:33:28;5.80;;;4.40;;
21114;SDS011;10715;48.546;9.896;2023-09-08T03:35:54;3.70;;;3.40;;
21114;SDS011;10715;48.546;9.896;2023-09-08T03:38:20;3.73;;;3.43;;
21114;SDS011;10715;48.546;9.896;2023-09-08T03:40:46;4.73;;;3.50;;
21114;SDS011;10715;48.546;9.896;2023-09-08T03:43:12;4.80;;;3.47;;
21114;SDS011;10715;48.546;9.896;2023-09-08T03:45:38;4.97;;;3.70;;
21114;SDS011;10715;48.546;9.896;2023-09-08T03:48:03;4.60;;;2.70;;
21114;SDS011;10715;48.546;9.896;2023-09-08T03:50:29;4.67;;;3.43;;
21114;SDS011;10715;48.546;9.896;2023-09-08T03:52:55;4.10;;;2.70;;
21114;SDS011;10715;48.546;9.896;2023-09-08T03:55:21;3.73;;;2.33;;
21114;SDS011;10715;48.546;9.896;2023-09-08T03:57:47;4.83;;;4.03;;
21114;SDS011;10715;48.546;9.896;2023-09-08T04:00:13;4.87;;;3.27;;
21114;SDS011;10715;48.546;9.896;2023-09-08T04:02:45;4.20;;;3.80;;
21114;SDS011;10715;48.546;9.896;2023-09-08T04:05:11;4.37;;;3.77;;
21114;SDS011;10715;48.546;9.896;2023-09-08T04:07:37;4.37;;;3.97;;
21114;SDS011;10715;48.546;9.896;2023-09-08T04:10:02;5.33;;;4.93;;
21114;SDS011;10715;48.546;9.896;2023-09-08T04:12:28;4.07;;;3.10;;
21114;SDS011;10715;48.546;9.896;2023-09-08T04:14:54;4.03;;;3.70;;
21114;SDS011;10715;48.546;9.896;2023-09-08T04:17:20;8.47;;;5.00;;
21114;SDS011;10715;48.546;9.896;2023-09-08T04:19:45;3.90;;;3.60;;
21114;SDS011;10715;48.546;9.896;2023-09-08T04:22:11;3.43;;;3.23;;
21114;SDS011;10715;48.546;9.896;2023-09-08T04:24:37;4.53;;;3.20;;
21114;SDS011;10715;48.546;9.896;2023-09-08T04:27:03;4.77;;;3.70;;
21114;SDS011;10715;48.546;9.896;2023-09-08T04:29:29;3.87;;;3.30;;
21114;SDS011;10715;48.546;9.896;2023-09-08T04:31:55;3.73;;;3.43;;
21114;SDS011;10715;48.546;9.896;2023-09-08T04:34:20;4.80;;;4.30;;
21114;SDS011;10715;48.546;9.896;2023-09-08T04:36:46;4.90;;;3.50;;
21114;SDS011;10715;48.546;9.896;2023-09-08T04:39:12;6.80;;;5.50;;
21114;SDS011;10715;48.546;9.896;2023-09-08T04:41:40;9.93;;;5.60;;
21114;SDS011;10715;48.546;9.896;2023-09-08T04:44:06;4.70;;;3.60;;
21114;SDS011;10715;48.546;9.896;2023-09-08T04:46:31;7.50;;;3.83;;
21114;SDS011;10715;48.546;9.896;2023-09-08T04:48:57;5.50;;;5.00;;
21114;SDS011;10715;48.546;9.896;2023-09-08T04:51:23;3.57;;;3.23;;
21114;SDS011;10715;48.546;9.896;2023-09-08T04:53:49;7.83;;;4.40;;
21114;SDS011;10715;48.546;9.896;2023-09-08T04:56:15;6.60;;;4.80;;
21114;SDS011;10715;48.546;9.896;2023-09-08T04:58:40;4.70;;;3.80;;
21114;SDS011;10715;48.546;9.896;2023-09-08T05:01:07;11.13;;;5.00;;
21114;SDS011;10715;48.546;9.896;2023-09-08T05:03:32;3.60;;;3.27;;
21114;SDS011;10715;48.546;9.896;2023-09-08T05:05:58;5.03;;;4.70;;
21114;SDS011;10715;48.546;9.896;2023-09-08T05:08:26;8.23;;;4.57;;
21114;SDS011;10715;48.546;9.896;2023-09-08T05:10:52;6.43;;;4.13;;
21114;SDS011;10715;48.546;9.896;2023-09-08T05:13:17;4.73;;;4.30;;
21114;SDS011;10715;48.546;9.896;2023-09-08T05:15:43;16.53;;;4.23;;
21114;SDS011;10715;48.546;9.896;2023-09-08T05:18:13;6.87;;;4.50;;
21114;SDS011;10715;48.546;9.896;2023-09-08T05:20:39;5.20;;;3.63;;
21114;SDS011;10715;48.546;9.896;2023-09-08T05:23:04;12.13;;;5.70;;
21114;SDS011;10715;48.546;9.896;2023-09-08T05:25:30;9.03;;;3.90;;
21114;SDS011;10715;48.546;9.896;2023-09-08T05:27:56;5.77;;;4.10;;
21114;SDS011;10715;48.546;9.896;2023-09-08T05:30:22;5.13;;;3.80;;
21114;SDS011;10715;48.546;9.896;2023-09-08T05:32:47;5.73;;;4.30;;
21114;SDS011;10715;48.546;9.896;2023-09-08T05:35:13;8.40;;;4.97;;
21114;SDS011;10715;48.546;9.896;2023-09-08T05:37:39;8.67;;;4.77;;
21114;SDS011;10715;48.546;9.896;2023-09-08T05:40:05;5.07;;;3.93;;
21114;SDS011;10715;48.546;9.896;2023-09-08T05:42:31;13.93;;;5.43;;
21114;SDS011;10715;48.546;9.896;2023-09-08T05:44:57;10.87;;;5.43;;
21114;SDS011;10715;48.546;9.896;2023-09-08T05:47:23;6.30;;;4.70;;
21114;SDS011;10715;48.546;9.896;2023-09-08T05:49:48;8.53;;;5.20;;
21114;SDS011;10715;48.546;9.896;2023-09-08T05:52:14;11.17;;;5.37;;
21114;SDS011;10715;48.546;9.896;2023-09-08T05:54:40;12.17;;;3.90;;
21114;SDS011;10715;48.546;9.896;2023-09-08T05:57:05;5.27;;;4.70;;
21114;SDS011;10715;48.546;9.896;2023-09-08T05:59:31;7.07;;;4.53;;
21114;SDS011;10715;48.546;9.896;2023-09-08T06:01:57;6.00;;;5.50;;
21114;SDS011;10715;48.546;9.896;2023-09-08T06:04:23;5.30;;;4.80;;
21114;SDS011;10715;48.546;9.896;2023-09-08T06:06:48;5.93;;;5.27;;
21114;SDS011;10715;48.546;9.896;2023-09-08T06:09:14;5.87;;;4.67;;
21114;SDS011;10715;48.546;9.896;2023-09-08T06:11:41;4.63;;;4.23;;
21114;SDS011;10715;48.546;9.896;2023-09-08T06:14:07;5.97;;;5.40;;
21114;SDS011;10715;48.546;9.896;2023-09-08T06:16:33;5.17;;;4.77;;
21114;SDS011;10715;48.546;9.896;2023-09-08T06:19:00;5.67;;;5.23;;
21114;SDS011;10715;48.546;9.896;2023-09-08T06:21:28;5.63;;;5.13;;
21114;SDS011;10715;48.546;9.896;2023-09-08T06:23:53;9.93;;;5.63;;
21114;SDS011;10715;48.546;9.896;2023-09-08T06:26:19;6.73;;;4.93;;
21114;SDS011;10715;48.546;9.896;2023-09-08T06:28:45;6.87;;;5.37;;
21114;SDS011;10715;48.546;9.896;2023-09-08T06:31:11;7.37;;;6.57;;
21114;SDS011;10715;48.546;9.896;2023-09-08T06:33:36;6.13;;;5.60;;
21114;SDS011;10715;48.546;9.896;2023-09-08T06:36:02;5.10;;;4.60;;
21114;SDS011;10715;48.546;9.896;2023-09-08T06:38:28;6.80;;;6.13;;
21114;SDS011;10715;48.546;9.896;2023-09-08T06:40:56;7.23;;;5.80;;
21114;SDS011;10715;48.546;9.896;2023-09-08T06:43:22;8.50;;;5.53;;
21114;SDS011;10715;48.546;9.896;2023-09-08T06:45:48;7.20;;;5.90;;
21114;SDS011;10715;48.546;9.896;2023-09-08T06:48:14;6.77;;;5.77;;
21114;SDS011;10715;48.546;9.896;2023-09-08T06:50:40;8.87;;;6.33;;
21114;SDS011;10715;48.546;9.896;2023-09-08T06:53:06;7.20;;;5.60;;
21114;SDS011;10715;48.546;9.896;2023-09-08T06:55:31;7.67;;;5.60;;
21114;SDS011;10715;48.546;9.896;2023-09-08T06:57:57;6.67;;;6.00;;
21114;SDS011;10715;48.546;9.896;2023-09-08T07:00:23;9.00;;;5.90;;
21114;SDS011;10715;48.546;9.896;2023-09-08T07:02:49;12.80;;;5.03;;
21114;SDS011;10715;48.546;9.896;2023-09-08T07:05:15;6.57;;;5.50;;
21114;SDS011;10715;48.546;9.896;2023-09-08T07:07:41;8.83;;;6.27;;
21114;SDS011;10715;48.546;9.896;2023-09-08T07:10:07;16.43;;;7.07;;
21114;SDS011;10715;48.546;9.896;2023-09-08T07:12:34;9.97;;;6.80;;
21114;SDS011;10715;48.546;9.896;2023-09-08T07:14:59;15.53;;;6.83;;
21114;SDS011;10715;48.546;9.896;2023-09-08T07:17:25;8.63;;;6.10;;
21114;SDS011;10715;48.546;9.896;2023-09-08T07:19:52;13.20;;;6.53;;
21114;SDS011;10715;48.546;9.896;2023-09-08T07:22:17;19.73;;;7.70;;
21114;SDS011;10715;48.546;9.896;2023-09-08T07:24:44;6.33;;;5.20;;
21114;SDS011;10715;48.546;9.896;2023-09-08T07:27:10;15.13;;;7.47;;
21114;SDS011;10715;48.546;9.896;2023-09-08T07:29:38;8.40;;;7.13;;
21114;SDS011;10715;48.546;9.896;2023-09-08T07:32:04;10.07;;;7.10;;
21114;SDS011;10715;48.546;9.896;2023-09-08T07:34:31;6.97;;;6.27;;
21114;SDS011;10715;48.546;9.896;2023-09-08T07:36:57;12.10;;;5.90;;
21114;SDS011;10715;48.546;9.896;2023-09-08T07:39:22;31.77;;;7.63;;
21114;SDS011;10715;48.546;9.896;2023-09-08T07:41:48;7.63;;;6.67;;
21114;SDS011;10715;48.546;9.896;2023-09-08T07:44:14;7.80;;;4.90;;
21114;SDS011;10715;48.546;9.896;2023-09-08T07:46:40;8.73;;;4.60;;
21114;SDS011;10715;48.546;9.896;2023-09-08T07:49:05;10.20;;;6.80;;
21114;SDS011;10715;48.546;9.896;2023-09-08T07:51:31;7.40;;;6.07;;
21114;SDS011;10715;48.546;9.896;2023-09-08T07:53:57;8.33;;;5.73;;
21114;SDS011;10715;48.546;9.896;2023-09-08T07:56:23;6.20;;;4.57;;
21114;SDS011;10715;48.546;9.896;2023-09-08T07:58:48;9.50;;;5.73;;
21114;SDS011;10715;48.546;9.896;2023-09-08T08:01:14;10.10;;;6.93;;
21114;SDS011;10715;48.546;9.896;2023-09-08T08:03:40;6.97;;;5.63;;
21114;SDS011;10715;48.546;9.896;2023-09-08T08:06:06;6.10;;;4.93;;
21114;SDS011;10715;48.546;9.896;2023-09-08T08:08:33;9.03;;;4.87;;
21114;SDS011;10715;48.546;9.896;2023-09-08T08:11:07;9.30;;;4.87;;
21114;SDS011;10715;48.546;9.896;2023-09-08T08:13:37;9.50;;;7.33;;
21114;SDS011;10715;48.546;9.896;2023-09-08T08:16:03;11.17;;;7.10;;
21114;SDS011;10715;48.546;9.896;2023-09-08T08:18:29;7.40;;;6.70;;
21114;SDS011;10715;48.546;9.896;2023-09-08T08:20:54;4.67;;;4.27;;
21114;SDS011;10715;48.546;9.896;2023-09-08T08:23:20;5.70;;;5.17;;
21114;SDS011;10715;48.546;9.896;2023-09-08T08:25:46;9.97;;;5.80;;
21114;SDS011;10715;48.546;9.896;2023-09-08T08:28:11;5.23;;;4.73;;
21114;SDS011;10715;48.546;9.896;2023-09-08T08:30:37;6.87;;;5.00;;
21114;SDS011;10715;48.546;9.896;2023-09-08T08:33:03;13.10;;;6.80;;
21114;SDS011;10715;48.546;9.896;2023-09-08T08:35:29;9.23;;;5.87;;
21114;SDS011;10715;48.546;9.896;2023-09-08T08:37:57;6.30;;;5.43;;
21114;SDS011;10715;48.546;9.896;2023-09-08T08:40:23;7.77;;;5.13;;
21114;SDS011;10715;48.546;9.896;2023-09-08T08:42:54;7.63;;;5.27;;
21114;SDS011;10715;48.546;9.896;2023-09-08T08:45:25;8.80;;;5.77;;
21114;SDS011;10715;48.546;9.896;2023-09-08T08:47:51;5.10;;;4.57;;
21114;SDS011;10715;48.546;9.896;2023-09-08T08:50:18;4.63;;;4.23;;
21114;SDS011;10715;48.546;9.896;2023-09-08T08:52:44;8.57;;;4.47;;
21114;SDS011;10715;48.546;9.896;2023-09-08T08:55:11;12.03;;;4.73;;
21114;SDS011;10715;48.546;9.896;2023-09-08T08:57:37;8.63;;;4.60;;
21114;SDS011;10715;48.546;9.896;2023-09-08T09:00:07;7.00;;;4.60;;
21114;SDS011;10715;48.546;9.896;2023-09-08T09:02:36;22.20;;;5.23;;
21114;SDS011;10715;48.546;9.896;2023-09-08T09:05:12;6.17;;;5.40;;
21114;SDS011;10715;48.546;9.896;2023-09-08T09:07:41;7.60;;;4.30;;
21114;SDS011;10715;48.546;9.896;2023-09-08T09:10:08;5.20;;;4.80;;
21114;SDS011;10715;48.546;9.896;2023-09-08T09:12:36;5.97;;;4.23;;
21114;SDS011;10715;48.546;9.896;2023-09-08T09:15:03;5.87;;;4.30;;
21114;SDS011;10715;48.546;9.896;2023-09-08T09:17:30;6.93;;;4.30;;
21114;SDS011;10715;48.546;9.896;2023-09-08T09:20:12;9.20;;;4.27;;
21114;SDS011;10715;48.546;9.896;2023-09-08T09:22:43;6.37;;;4.60;;
21114;SDS011;10715;48.546;9.896;2023-09-08T09:25:09;6.00;;;4.30;;
21114;SDS011;10715;48.546;9.896;2023-09-08T09:27:35;7.07;;;4.70;;
21114;SDS011;10715;48.546;9.896;2023-09-08T09:30:04;7.50;;;4.27;;
21114;SDS011;10715;48.546;9.896;2023-09-08T09:32:30;4.00;;;3.70;;
21114;SDS011;10715;48.546;9.896;2023-09-08T09:34:56;4.80;;;3.70;;
21114;SDS011;10715;48.546;9.896;2023-09-08T09:37:26;12.03;;;5.03;;
21114;SDS011;10715;48.546;9.896;2023-09-08T09:39:52;9.50;;;4.30;;
21114;SDS011;10715;48.546;9.896;2023-09-08T09:42:20;16.47;;;4.20;;
21114;SDS011;10715;48.546;9.896;2023-09-08T09:44:47;4.33;;;4.00;;
21114;SDS011;10715;48.546;9.896;2023-09-08T09:47:13;5.80;;;4.50;;
21114;SDS011;10715;48.546;9.896;2023-09-08T09:49:43;7.93;;;4.70;;
21114;SDS011;10715;48.546;9.896;2023-09-08T09:52:13;5.83;;;5.13;;
21114;SDS011;10715;48.546;9.896;2023-09-08T09:54:47;6.30;;;4.67;;
21114;SDS011;10715;48.546;9.896;2023-09-08T09:57:15;4.40;;;3.47;;
21114;SDS011;10715;48.546;9.896;2023-09-08T09:59:45;5.50;;;4.07;;
21114;SDS011;10715;48.546;9.896;2023-09-08T10:02:13;5.90;;;5.40;;
21114;SDS011;10715;48.546;9.896;2023-09-08T10:04:40;4.73;;;4.33;;
21114;SDS011;10715;48.546;9.896;2023-09-08T10:07:09;4.50;;;4.10;;
21114;SDS011;10715;48.546;9.896;2023-09-08T10:09:35;4.87;;;4.43;;
21114;SDS011;10715;48.546;9.896;2023-09-08T10:12:04;6.97;;;4.50;;
21114;SDS011;10715;48.546;9.896;2023-09-08T10:14:31;4.53;;;4.13;;
21114;SDS011;10715;48.546;9.896;2023-09-08T10:17:00;9.53;;;6.10;;
21114;SDS011;10715;48.546;9.896;2023-09-08T10:19:27;6.30;;;4.33;;
21114;SDS011;10715;48.546;9.896;2023-09-08T10:22:00;7.13;;;3.47;;
21114;SDS011;10715;48.546;9.896;2023-09-08T10:24:29;4.47;;;4.17;;
21114;SDS011;10715;48.546;9.896;2023-09-08T10:29:36;5.23;;;4.83;;
21114;SDS011;10715;48.546;9.896;2023-09-08T10:32:02;5.70;;;3.67;;
21114;SDS011;10715;48.546;9.896;2023-09-08T10:34:29;5.93;;;5.43;;
21114;SDS011;10715;48.546;9.896;2023-09-08T10:36:56;3.50;;;3.20;;
21114;SDS011;10715;48.546;9.896;2023-09-08T10:39:55;7.60;;;4.80;;
21114;SDS011;10715;48.546;9.896;2023-09-08T10:47:24;6.40;;;4.80;;
21114;SDS011;10715;48.546;9.896;2023-09-08T10:49:51;6.47;;;4.80;;
21114;SDS011;10715;48.546;9.896;2023-09-08T10:52:23;5.23;;;4.43;;
21114;SDS011;10715;48.546;9.896;2023-09-08T10:54:54;4.60;;;4.17;;
21114;SDS011;10715;48.546;9.896;2023-09-08T10:57:21;5.57;;;5.03;;
21114;SDS011;10715;48.546;9.896;2023-09-08T11:05:03;4.83;;;4.40;;
21114;SDS011;10715;48.546;9.896;2023-09-08T11:07:39;5.73;;;5.10;;
21114;SDS011;10715;48.546;9.896;2023-09-08T11:10:06;3.97;;;3.60;;
21114;SDS011;10715;48.546;9.896;2023-09-08T11:12:33;6.20;;;5.53;;
21114;SDS011;10715;48.546;9.896;2023-09-08T11:14:59;5.07;;;4.67;;
21114;SDS011;10715;48.546;9.896;2023-09-08T11:17:34;4.23;;;3.80;;
21114;SDS011;10715;48.546;9.896;2023-09-08T11:20:01;5.77;;;5.27;;
21114;SDS011;10715;48.546;9.896;2023-09-08T11:22:36;4.40;;;4.00;;
21114;SDS011;10715;48.546;9.896;2023-09-08T11:25:03;7.60;;;4.00;;
21114;SDS011;10715;48.546;9.896;2023-09-08T11:27:32;4.80;;;4.40;;
21114;SDS011;10715;48.546;9.896;2023-09-08T11:29:59;6.47;;;5.13;;
21114;SDS011;10715;48.546;9.896;2023-09-08T11:32:32;4.70;;;4.30;;
21114;SDS011;10715;48.546;9.896;2023-09-08T11:35:05;5.37;;;4.50;;
21114;SDS011;10715;48.546;9.896;2023-09-08T11:37:34;7.83;;;4.17;;
21114;SDS011;10715;48.546;9.896;2023-09-08T11:40:05;12.70;;;5.07;;
21114;SDS011;10715;48.546;9.896;2023-09-08T11:42:42;4.73;;;4.43;;
21114;SDS011;10715;48.546;9.896;2023-09-08T11:45:15;4.03;;;3.73;;
21114;SDS011;10715;48.546;9.896;2023-09-08T11:47:46;5.27;;;4.20;;
21114;SDS011;10715;48.546;9.896;2023-09-08T11:50:14;4.63;;;3.53;;
21114;SDS011;10715;48.546;9.896;2023-09-08T11:52:48;6.73;;;5.23;;
21114;SDS011;10715;48.546;9.896;2023-09-08T11:55:15;4.17;;;3.87;;
21114;SDS011;10715;48.546;9.896;2023-09-08T11:57:41;6.80;;;4.53;;
21114;SDS011;10715;48.546;9.896;2023-09-08T12:00:09;4.70;;;3.80;;
21114;SDS011;10715;48.546;9.896;2023-09-08T12:02:41;4.13;;;3.83;;
21114;SDS011;10715;48.546;9.896;2023-09-08T12:05:11;9.53;;;4.20;;
21114;SDS011;10715;48.546;9.896;2023-09-08T12:07:38;6.30;;;4.73;;
21114;SDS011;10715;48.546;9.896;2023-09-08T12:10:10;3.80;;;3.60;;
21114;SDS011;10715;48.546;9.896;2023-09-08T12:12:48;4.80;;;4.33;;
21114;SDS011;10715;48.546;9.896;2023-09-08T12:15:29;3.30;;;3.10;;
21114;SDS011;10715;48.546;9.896;2023-09-08T12:17:56;4.23;;;3.93;;
21114;SDS011;10715;48.546;9.896;2023-09-08T12:20:22;6.33;;;4.50;;
21114;SDS011;10715;48.546;9.896;2023-09-08T12:22:48;3.30;;;3.00;;
21114;SDS011;10715;48.546;9.896;2023-09-08T12:25:18;3.90;;;3.50;;
21114;SDS011;10715;48.546;9.896;2023-09-08T12:27:44;5.67;;;4.13;;
21114;SDS011;10715;48.546;9.896;2023-09-08T12:30:21;4.80;;;4.50;;
21114;SDS011;10715;48.546;9.896;2023-09-08T12:32:55;4.27;;;3.87;;
21114;SDS011;10715;48.546;9.896;2023-09-08T12:35:22;4.43;;;4.13;;
21114;SDS011;10715;48.546;9.896;2023-09-08T12:38:06;10.03;;;3.87;;
21114;SDS011;10715;48.546;9.896;2023-09-08T12:40:36;4.10;;;3.80;;
21114;SDS011;10715;48.546;9.896;2023-09-08T12:43:03;4.93;;;3.30;;
21114;SDS011;10715;48.546;9.896;2023-09-08T12:45:30;4.73;;;4.27;;
21114;SDS011;10715;48.546;9.896;2023-09-08T12:47:58;3.70;;;3.40;;
21114;SDS011;10715;48.546;9.896;2023-09-08T12:50:25;2.93;;;2.73;;
21114;SDS011;10715;48.546;9.896;2023-09-08T12:52:51;3.60;;;3.30;;
21114;SDS011;10715;48.546;9.896;2023-09-08T12:55:17;4.00;;;3.70;;
21114;SDS011;10715;48.546;9.896;2023-09-08T12:57:43;3.93;;;3.43;;
21114;SDS011;10715;48.546;9.896;2023-09-08T13:00:09;3.50;;;3.20;;
21114;SDS011;10715;48.546;9.896;2023-09-08T13:02:34;3.27;;;3.07;;
21114;SDS011;10715;48.546;9.896;2023-09-08T13:05:01;3.50;;;2.70;;
21114;SDS011;10715;48.546;9.896;2023-09-08T13:07:27;8.23;;;4.23;;
21114;SDS011;10715;48.546;9.896;2023-09-08T13:09:53;5.53;;;4.30;;
21114;SDS011;10715;48.546;9.896;2023-09-08T13:12:19;6.33;;;4.47;;
21114;SDS011;10715;48.546;9.896;2023-09-08T13:14:45;4.00;;;3.70;;
21114;SDS011;10715;48.546;9.896;2023-09-08T13:17:11;4.30;;;4.00;;
21114;SDS011;10715;48.546;9.896;2023-09-08T13:19:39;3.90;;;3.60;;
21114;SDS011;10715;48.546;9.896;2023-09-08T13:22:04;6.47;;;3.77;;
21114;SDS011;10715;48.546;9.896;2023-09-08T13:24:30;4.50;;;3.90;;
21114;SDS011;10715;48.546;9.896;2023-09-08T13:26:56;11.20;;;4.10;;
21114;SDS011;10715;48.546;9.896;2023-09-08T13:29:22;4.80;;;4.40;;
21114;SDS011;10715;48.546;9.896;2023-09-08T13:31:48;9.00;;;3.90;;
21114;SDS011;10715;48.546;9.896;2023-09-08T13:34:14;7.97;;;3.63;;
21114;SDS011;10715;48.546;9.896;2023-09-08T13:36:39;7.20;;;3.60;;
21114;SDS011;10715;48.546;9.896;2023-09-08T13:39:05;3.70;;;3.40;;
21114;SDS011;10715;48.546;9.896;2023-09-08T13:41:44;5.67;;;3.47;;
21114;SDS011;10715;48.546;9.896;2023-09-08T13:44:17;4.33;;;4.00;;
21114;SDS011;10715;48.546;9.896;2023-09-08T13:46:44;4.40;;;3.83;;
21114;SDS011;10715;48.546;9.896;2023-09-08T13:49:14;12.90;;;4.57;;
21114;SDS011;10715;48.546;9.896;2023-09-08T13:51:41;3.90;;;3.60;;
21114;SDS011;10715;48.546;9.896;2023-09-08T13:54:07;10.93;;;4.30;;
21114;SDS011;10715;48.546;9.896;2023-09-08T13:56:34;4.60;;;4.20;;
21114;SDS011;10715;48.546;9.896;2023-09-08T13:59:03;3.70;;;3.40;;
21114;SDS011;10715;48.546;9.896;2023-09-08T14:01:29;5.17;;;3.43;;
21114;SDS011;10715;48.546;9.896;2023-09-08T14:03:57;4.50;;;4.20;;
21114;SDS011;10715;48.546;9.896;2023-09-08T14:06:25;4.70;;;3.50;;
21114;SDS011;10715;48.546;9.896;2023-09-08T14:08:51;4.13;;;3.83;;
21114;SDS011;10715;48.546;9.896;2023-09-08T14:11:18;3.67;;;2.90;;
21114;SDS011;10715;48.546;9.896;2023-09-08T14:13:44;5.43;;;3.30;;
21114;SDS011;10715;48.546;9.896;2023-09-08T14:16:10;4.17;;;3.87;;
21114;SDS011;10715;48.546;9.896;2023-09-08T14:18:36;3.87;;;3.57;;
21114;SDS011;10715;48.546;9.896;2023-09-08T14:21:02;7.70;;;5.53;;
21114;SDS011;10715;48.546;9.896;2023-09-08T14:23:29;6.70;;;3.87;;
21114;SDS011;10715;48.546;9.896;2023-09-08T14:25:56;4.50;;;4.20;;
21114;SDS011;10715;48.546;9.896;2023-09-08T14:28:21;2.90;;;2.67;;
21114;SDS011;10715;48.546;9.896;2023-09-08T14:30:49;4.63;;;3.97;;
21114;SDS011;10715;48.546;9.896;2023-09-08T14:33:16;3.43;;;3.20;;
21114;SDS011;10715;48.546;9.896;2023-09-08T14:35:42;3.43;;;3.23;;
21114;SDS011;10715;48.546;9.896;2023-09-08T14:38:08;6.13;;;4.40;;
21114;SDS011;10715;48.546;9.896;2023-09-08T14:40:34;3.37;;;3.17;;
21114;SDS011;10715;48.546;9.896;2023-09-08T14:43:00;4.50;;;4.17;;
21114;SDS011;10715;48.546;9.896;2023-09-08T14:45:25;4.43;;;4.10;;
21114;SDS011;10715;48.546;9.896;2023-09-08T14:47:54;3.23;;;2.93;;
21114;SDS011;10715;48.546;9.896;2023-09-08T14:50:20;8.23;;;3.17;;
21114;SDS011;10715;48.546;9.896;2023-09-08T14:52:45;3.67;;;3.20;;
21114;SDS011;10715;48.546;9.896;2023-09-08T14:55:11;4.00;;;3.70;;
21114;SDS011;10715;48.546;9.896;2023-09-08T14:57:37;4.23;;;3.83;;
21114;SDS011;10715;48.546;9.896;2023-09-08T15:00:03;4.27;;;3.80;;
21114;SDS011;10715;48.546;9.896;2023-09-08T15:02:30;3.90;;;3.47;;